createdAt,value
2023-03-28T00:04:42.209Z,14.88
2023-03-28T00:09:44.988Z,15.10
2023-03-28T00:14:47.996Z,16.30
2023-03-28T00:19:53.767Z,15.52
2023-03-28T00:24:59.065Z,16.38
2023-03-28T00:30:02.834Z,15.88
2023-03-28T00:35:06.776Z,14.73
2023-03-28T00:40:10.247Z,13.68
2023-03-28T00:45:13.182Z,14.50
2023-03-28T00:50:27.780Z,14.18
2023-03-28T00:55:48.066Z,14.20
2023-03-28T01:00:55.105Z,14.57
2023-03-28T01:05:58.470Z,15.13
2023-03-28T01:11:12.575Z,12.40
2023-03-28T01:16:16.359Z,14.77
2023-03-28T01:21:54.173Z,14.82
2023-03-28T01:27:27.752Z,14.50
2023-03-28T01:32:50.394Z,14.25
2023-03-28T01:38:03.341Z,13.65
2023-03-28T01:43:37.424Z,14.45
2023-03-28T01:49:16.305Z,12.63
2023-03-28T01:54:26.606Z,17.00
2023-03-28T01:59:48.603Z,14.48
2023-03-28T02:05:03.286Z,15.25
2023-03-28T02:10:09.192Z,14.43
2023-03-28T02:21:00.264Z,12.35
2023-03-28T02:26:29.117Z,11.63
2023-03-28T02:31:50.620Z,13.65
2023-03-28T02:36:57.846Z,14.98
2023-03-28T02:42:15.225Z,12.68
2023-03-28T02:47:39.207Z,10.77
2023-03-28T02:52:52.443Z,9.52
2023-03-28T02:58:00.341Z,10.90
2023-03-28T03:03:08.225Z,9.93
2023-03-28T03:08:11.992Z,10.05
2023-03-28T03:13:17.018Z,11.55
2023-03-28T03:18:19.844Z,10.15
2023-03-28T03:23:22.610Z,10.55
2023-03-28T03:28:29.540Z,10.43
2023-03-28T03:33:32.826Z,12.23
2023-03-28T03:38:40.083Z,11.38
2023-03-28T03:43:45.217Z,12.95
2023-03-28T03:48:50.460Z,13.73
2023-03-28T03:53:54.033Z,15.47
2023-03-28T03:59:05.026Z,16.80
2023-03-28T04:04:11.922Z,18.63
2023-03-28T04:09:34.594Z,19.58
2023-03-28T04:14:39.517Z,19.52
2023-03-28T04:20:13.352Z,18.55
2023-03-28T04:25:35.752Z,21.45
2023-03-28T04:30:42.011Z,19.00
2023-03-28T04:36:06.184Z,21.30
2023-03-28T04:41:09.621Z,20.95
2023-03-28T04:46:38.231Z,21.13
2023-03-28T04:51:50.978Z,23.38
2023-03-28T04:56:53.875Z,24.53
2023-03-28T05:02:05.167Z,23.05
2023-03-28T05:07:28.445Z,24.65
2023-03-28T05:12:31.320Z,24.17
2023-03-28T05:17:38.690Z,29.83
2023-03-28T05:23:06.442Z,22.67
2023-03-28T05:28:12.173Z,25.45
2023-03-28T05:33:23.351Z,21.73
2023-03-28T05:38:27.046Z,23.83
2023-03-28T05:43:33.627Z,24.42
2023-03-28T05:48:37.216Z,25.40
2023-03-28T05:53:39.885Z,23.23
2023-03-28T05:58:45.618Z,24.30
2023-03-28T06:03:48.380Z,22.90
2023-03-28T06:08:51.364Z,21.23
2023-03-28T06:13:54.630Z,23.42
2023-03-28T06:19:06.870Z,22.77
2023-03-28T06:24:18.095Z,21.65
2023-03-28T06:29:22.176Z,21.38
2023-03-28T06:34:33.890Z,19.85
2023-03-28T06:39:37.836Z,18.23
2023-03-28T06:44:41.080Z,16.67
2023-03-28T06:49:54.056Z,18.63
2023-03-28T06:54:59.528Z,19.15
2023-03-28T07:00:02.504Z,20.48
2023-03-28T07:05:25.215Z,20.45
2023-03-28T07:10:28.206Z,18.10
2023-03-28T07:15:31.205Z,16.30
2023-03-28T07:20:34.576Z,19.85
2023-03-28T07:25:37.559Z,18.15
2023-03-28T07:30:40.634Z,16.08
2023-03-28T07:35:43.452Z,20.20
2023-03-28T07:40:48.957Z,17.23
2023-03-28T07:45:52.265Z,15.15
2023-03-28T07:50:55.757Z,17.77
2023-03-28T07:55:59.683Z,16.10
2023-03-28T08:01:13.051Z,16.00
2023-03-28T08:06:30.923Z,13.73
2023-03-28T08:11:36.261Z,16.08
2023-03-28T08:16:39.362Z,16.10
2023-03-28T08:21:42.202Z,15.77
2023-03-28T08:26:47.432Z,14.35
2023-03-28T08:31:52.027Z,17.13
2023-03-28T08:36:55.005Z,15.45
2023-03-28T08:42:27.613Z,16.00
2023-03-28T08:47:33.862Z,15.63
2023-03-28T08:52:36.920Z,15.07
2023-03-28T08:57:42.790Z,15.52
2023-03-28T09:08:08.344Z,14.73
2023-03-28T09:13:14.921Z,14.10
2023-03-28T09:18:57.871Z,13.00
2023-03-28T09:24:21.881Z,14.63
2023-03-28T09:29:40.534Z,14.93
2023-03-28T09:34:46.649Z,12.53
2023-03-28T09:39:53.896Z,13.68
2023-03-28T09:45:35.454Z,14.07
2023-03-28T09:50:59.056Z,15.70
2023-03-28T09:56:06.473Z,14.65
2023-03-28T10:01:44.450Z,12.90
2023-03-28T10:07:11.556Z,12.23
2023-03-28T10:12:44.022Z,11.50
2023-03-28T10:17:46.914Z,12.95
2023-03-28T10:22:55.104Z,13.52
2023-03-28T10:28:00.998Z,14.32
2023-03-28T10:38:48.109Z,12.80
2023-03-28T10:44:19.516Z,12.82
2023-03-28T10:49:51.143Z,13.35
2023-03-28T10:55:18.667Z,13.25
2023-03-28T11:00:42.430Z,14.27
2023-03-28T11:06:01.725Z,12.73
2023-03-28T11:16:54.786Z,14.40
2023-03-28T11:22:33.368Z,12.65
2023-03-28T11:27:42.959Z,12.50
2023-03-28T11:33:14.403Z,13.60
2023-03-28T11:38:22.636Z,13.82
2023-03-28T11:43:35.652Z,13.55
2023-03-28T11:49:18.528Z,14.35
2023-03-28T11:54:36.991Z,15.52
2023-03-28T11:59:43.217Z,16.48
2023-03-28T12:05:10.710Z,14.63
2023-03-28T12:10:38.548Z,15.57
2023-03-28T12:16:12.345Z,16.75
2023-03-28T12:21:41.948Z,14.73
2023-03-28T12:27:08.037Z,14.48
2023-03-28T12:32:27.747Z,18.40
2023-03-28T12:38:23.064Z,16.75
2023-03-28T12:43:56.097Z,17.55
2023-03-28T12:49:11.657Z,17.40
2023-03-28T12:54:17.517Z,17.77
2023-03-28T12:59:48.429Z,18.65
2023-03-28T13:05:19.051Z,16.92
2023-03-28T13:11:08.611Z,16.70
2023-03-28T13:16:17.480Z,16.08
2023-03-28T13:21:43.617Z,15.95
2023-03-28T13:26:57.912Z,15.82
2023-03-28T13:32:04.462Z,18.15
2023-03-28T13:37:42.189Z,17.95
2023-03-28T13:42:58.308Z,18.27
2023-03-28T13:48:12.654Z,17.50
2023-03-28T13:58:19.346Z,18.20
2023-03-28T14:03:22.280Z,17.33
2023-03-28T14:08:26.143Z,17.33
2023-03-28T14:13:32.294Z,15.00
2023-03-28T14:18:46.460Z,16.73
2023-03-28T14:23:57.475Z,18.38
2023-03-28T14:29:15.378Z,15.82
2023-03-28T14:34:21.749Z,15.57
2023-03-28T14:39:25.271Z,16.13
2023-03-28T14:44:29.236Z,14.38
2023-03-28T14:49:33.083Z,18.70
2023-03-28T14:54:39.767Z,17.30
2023-03-28T14:59:45.339Z,18.20
2023-03-28T15:04:48.610Z,17.42
2023-03-28T15:10:13.059Z,16.88
2023-03-28T15:15:25.586Z,24.83
2023-03-28T15:20:32.438Z,20.98
2023-03-28T15:25:36.189Z,17.15
2023-03-28T15:30:44.024Z,17.85
2023-03-28T15:35:47.279Z,18.33
2023-03-28T15:40:51.740Z,18.00
2023-03-28T15:46:02.365Z,16.43
2023-03-28T15:51:07.224Z,16.63
2023-03-28T15:56:24.421Z,18.58
2023-03-28T16:01:32.450Z,16.70
2023-03-28T16:06:44.167Z,18.25
2023-03-28T16:11:48.132Z,16.95
2023-03-28T16:17:29.243Z,16.65
2023-03-28T16:22:45.569Z,17.13
2023-03-28T16:27:48.563Z,15.68
2023-03-28T16:32:51.608Z,18.70
2023-03-28T16:37:55.535Z,18.98
2023-03-28T16:42:58.911Z,16.45
2023-03-28T16:48:01.832Z,15.45
2023-03-28T16:53:06.849Z,15.45
2023-03-28T16:58:09.585Z,16.65
2023-03-28T17:03:18.181Z,19.33
2023-03-28T17:08:22.619Z,16.52
2023-03-28T17:13:25.471Z,17.02
2023-03-28T17:18:28.440Z,15.63
2023-03-28T17:23:32.046Z,17.50
2023-03-28T17:28:39.263Z,20.52
2023-03-28T17:33:42.237Z,23.80
2023-03-28T17:38:45.216Z,16.38
2023-03-28T17:43:47.925Z,19.30
2023-03-28T17:48:51.101Z,19.13
2023-03-28T17:53:54.540Z,17.52
2023-03-28T17:58:59.899Z,17.52
2023-03-28T18:04:02.900Z,18.95
2023-03-28T18:09:31.773Z,17.45
2023-03-28T18:14:34.658Z,18.73
2023-03-28T18:19:37.548Z,17.52
2023-03-28T18:24:40.369Z,19.13
2023-03-28T18:29:43.120Z,19.70
2023-03-28T18:34:45.808Z,18.02
2023-03-28T18:39:49.026Z,22.27
2023-03-28T18:44:51.695Z,18.83
2023-03-28T18:49:54.794Z,21.10
2023-03-28T18:54:57.641Z,19.20
2023-03-28T19:00:00.680Z,20.45
2023-03-28T19:05:03.493Z,22.55
2023-03-28T19:10:07.718Z,18.02
2023-03-28T19:15:11.288Z,17.70
2023-03-28T19:20:14.047Z,20.38
2023-03-28T19:25:16.900Z,21.83
2023-03-28T19:30:19.848Z,19.70
2023-03-28T19:35:23.111Z,21.42
2023-03-28T19:40:26.994Z,23.38
2023-03-28T19:45:30.205Z,22.45
2023-03-28T19:50:33.947Z,24.70
2023-03-28T19:55:36.814Z,23.33
2023-03-28T20:00:39.563Z,22.23
2023-03-28T20:05:47.388Z,24.08
2023-03-28T20:10:51.688Z,24.35
2023-03-28T20:15:55.828Z,24.50
2023-03-28T20:21:01.081Z,26.55
2023-03-28T20:26:15.805Z,27.17
2023-03-28T20:31:19.383Z,26.73
2023-03-28T20:36:22.872Z,26.58
2023-03-28T20:41:27.343Z,28.27
2023-03-28T20:46:32.991Z,31.13
2023-03-28T20:51:39.298Z,30.63
2023-03-28T20:56:43.075Z,26.63
2023-03-28T21:01:46.373Z,30.35
2023-03-28T21:06:50.374Z,27.17
2023-03-28T21:11:53.234Z,29.40
2023-03-28T21:16:58.297Z,28.85
2023-03-28T21:22:01.701Z,34.95
2023-03-28T21:27:04.843Z,28.45
2023-03-28T21:32:07.829Z,35.45
2023-03-28T21:37:11.404Z,37.05
2023-03-28T21:42:14.085Z,37.53
2023-03-28T21:47:16.850Z,35.95
2023-03-28T21:52:20.001Z,39.42
2023-03-28T21:57:22.910Z,40.97
2023-03-28T22:02:25.923Z,39.03
2023-03-28T22:07:28.610Z,43.88
2023-03-28T22:12:32.841Z,41.45
2023-03-28T22:17:38.809Z,47.13
2023-03-28T22:22:48.846Z,43.53
2023-03-28T22:27:53.224Z,43.35
2023-03-28T22:32:56.032Z,43.63
2023-03-28T22:37:59.262Z,42.58
2023-03-28T22:43:03.509Z,48.53
2023-03-28T22:48:14.711Z,46.05
2023-03-28T22:53:18.252Z,48.83
2023-03-28T22:58:22.900Z,45.05
2023-03-28T23:03:25.712Z,47.23
2023-03-28T23:08:28.726Z,42.88
2023-03-28T23:13:31.577Z,48.25
2023-03-28T23:18:34.519Z,44.30
2023-03-28T23:23:37.195Z,48.63
2023-03-28T23:28:40.082Z,53.42
2023-03-28T23:33:44.961Z,57.85
2023-03-28T23:38:48.473Z,59.33
2023-03-28T23:43:51.362Z,62.78
2023-03-28T23:48:54.074Z,63.05
2023-03-28T23:53:56.835Z,67.43
2023-03-28T23:58:59.524Z,71.95
